KSVN/SVN METAR and TAF weather

Enter ICAO airport designator
Station Type Date Time Source
KSVN METAR 2021/07/28 02:59 UTC NOAA

KSVN 280259Z 20011KT 10SM VCTS -RA FEW006 BKN010 BKN016 OVC024 26/24 A2997 RMK AO2A RAB59 CIG 010V013 CIG 008 RWY28 SLP152 $


Station Type Date Time Source
KSVN Decoded METAR 2021/07/28 02:59 UTC NOAA

Hunter U. S. Army Airfield , GA, United States (KSVN) 32-01N 081-09W
Jul 27, 2021 - 10:59 PM EDT / 2021.07.28 0259 UTC
Wind: from the SSW (200 degrees) at 13 MPH (11 KT):0
Visibility: 10 mile(s):0
Sky conditions: overcast
Weather: thunder in the vicinity; light rain
Temperature: 78 F (26 C)
Dew Point: 75 F (24 C)
Relative Humidity: 88%
Pressure (altimeter): 29.97 in. Hg (1014 hPa)
ob: KSVN 280259Z 20011KT 10SM VCTS -RA FEW006 BKN010 BKN016 OVC024 26/24 A2997 RMK AO2A RAB59 CIG 010V013 CIG 008 RWY28 SLP152
cycle: 3

Station Type Date Time Source
KSVN TAF 2021/07/27 20:03 UTC NOAA

TAF KSVN 272000Z 2720/2902 VRB06KT 9999 VCTS SCT015CB BKN020 QNH2990INS
BECMG 2800/2801 15010G15KT 9000 -SHRA SCT015 BKN020 QNH2997INS
BECMG 2802/2803 VRB06KT 8000 BR VCTS BKN010CB QNH2997INS
BECMG 2811/2812 VRB06KT 9999 NSW SCT010 BKN020 QNH2997INS
TEMPO 2815/2817 VRB15G20KT 8000 -TSRA BKN025CB OVC040
BECMG 2817/2818 VRB06KT 9000 VCTS SCT010CB BKN020 QNH2997INS TX31/2818Z TN25/2811Z

Example: see airport list